CheckWX is a tool to help pilots better visualize weather data.  It is not intended as a substitute for an official pre-flight weather briefing.

21:17:22 UTC

KMKO METAR
Muskogee-Davis Regional Airport
Muskogee, Oklahoma, USA
Current

24 mins ago

KMKO 232053Z AUTO 16012KT 10SM FEW060 30/22 A3001 RMK AO2 SLP152 T03000222 56016
Observed
May-23 @ 20:53 UTC
Wind
  • 160° at 12 KTS
Visibility
10 SM
Flight Rules
VFR
Cloud Levels
  • Few at 6,000' AGL
Temperature
30°C / 86°F
Dewpoint
22°C / 72°F
Heat Index
33°C / 92°F
Humidity
62%
Altimeter
30.01" Hg
Pressure
1016.22 hPa
Previous

1 hour ago

KMKO 231953Z AUTO 16011G20KT 10SM SCT070 30/22 A3002 RMK AO2 SLP157 T03000222
Observed
May-23 @ 19:53 UTC
Wind
  • 160° at 11 KTS
  • Gusting to 20 KTS
Visibility
10 SM
Flight Rules
VFR
Cloud Levels
  • Scattered at 7,000' AGL
Temperature
30°C / 86°F
Dewpoint
22°C / 72°F
Heat Index
33°C / 92°F
Humidity
62%
Altimeter
30.02" Hg
Pressure
1016.62 hPa
Previous

2 hours ago

KMKO 231853Z AUTO 16014G19KT 10SM FEW036 29/23 A3004 RMK AO2 SLP162 T02940233
Observed
May-23 @ 18:53 UTC
Wind
  • 160° at 14 KTS
  • Gusting to 19 KTS
Visibility
10 SM
Flight Rules
VFR
Cloud Levels
  • Few at 3,600' AGL
Temperature
29°C / 84°F
Dewpoint
23°C / 73°F
Heat Index
32°C / 90°F
Humidity
70%
Altimeter
30.04" Hg
Pressure
1017.32 hPa